Etusivu
METAR-TAF:

METAR-TAF

Lentoasemat :

Boone Municipal Airport

Boone, Iowa, Yhdysvallat

Leveyspiiri: 42-03N, Pituuspiiri: 093-51W, korkeus merenpinnasta: 354 m

Tämänhetkinen sää

Tämä raportti tehtiin 19 minuuttia sitten, kello 02.15 UTC
Tuuli 4 kn lounaasta
Lämpötila 6°C
Kosteus 100%
Ilmanpaine 1004 hPa
Näkyvyys: 3.2 km
Hajanaisia pilviä 400 ft:n korkeudessa
Hajonneita pilviä 800 ft:n korkeudessa
Pilvistä 1300 ft:n korkeudessa
utua

METAR: KBNW 190215Z AUTO 23004KT 2SM BR SCT004 BKN008 OVC013 06/06 A2965 RMK AO2

Aika: 20:34 (02:34 UTC)


TAF: puuttuu

Säähavainnot ja -ennusteet yli 4000 lentoasemalta (METAR- ja TAF-raportit).

Käytössä olevat sääasemat on merkitty karttaan keltaisilla ja punaisilla pisteillä.

Aseta hiiri pisteen päälle nähdäksesi sääaseman nimen.

Klikkaa sitten nähdäksesi säähavainnot ja -ennusteet.

Kartan vaihtaminen: klikkaa mustalla rastilla varustettuja vihreitä pisteitä, niin voit zoomata sisään; viivalla varustettua vihreää pistettä, niin voit zoomata ulos tai vihreitä nuolia, niin pääset viereisille kartoille.


METAR-TAF: